createdAt,value
2022-11-13T00:01:25.329Z,23.92
2022-11-13T00:03:52.478Z,23.88
2022-11-13T00:06:19.813Z,20.73
2022-11-13T00:08:47.172Z,22.95
2022-11-13T00:11:19.107Z,23.65
2022-11-13T00:13:46.556Z,24.30
2022-11-13T00:16:15.831Z,16.60
2022-11-13T00:18:42.906Z,18.25
2022-11-13T00:21:17.234Z,22.95
2022-11-13T00:23:44.039Z,22.90
2022-11-13T00:26:19.065Z,19.05
2022-11-13T00:28:46.263Z,21.20
2022-11-13T00:31:14.947Z,22.40
2022-11-13T00:36:29.212Z,19.17
2022-11-13T00:38:56.248Z,21.98
2022-11-13T00:41:23.634Z,19.00
2022-11-13T00:43:50.585Z,21.55
2022-11-13T00:46:17.265Z,22.27
2022-11-13T00:48:43.849Z,23.58
2022-11-13T00:51:10.804Z,18.83
2022-11-13T00:53:37.750Z,20.55
2022-11-13T00:56:04.771Z,19.83
2022-11-13T00:58:31.767Z,21.40
2022-11-13T01:01:07.934Z,20.27
2022-11-13T01:03:34.720Z,22.52
2022-11-13T01:06:01.444Z,22.33
2022-11-13T01:08:28.389Z,18.88
2022-11-13T01:10:55.378Z,21.27
2022-11-13T01:13:22.016Z,21.90
2022-11-13T01:15:48.654Z,18.17
2022-11-13T01:18:15.338Z,19.23
2022-11-13T01:20:42.064Z,21.30
2022-11-13T01:23:08.806Z,16.25
2022-11-13T01:25:36.163Z,18.73
2022-11-13T01:28:02.867Z,18.15
2022-11-13T01:30:29.771Z,20.77
2022-11-13T01:32:56.467Z,17.85
2022-11-13T01:35:23.321Z,17.25
2022-11-13T01:37:50.397Z,20.48
2022-11-13T01:40:17.202Z,17.35
2022-11-13T01:42:43.830Z,16.63
2022-11-13T01:45:48.263Z,20.38
2022-11-13T01:48:15.392Z,18.75
2022-11-13T01:50:44.925Z,19.30
2022-11-13T01:53:11.813Z,16.15
2022-11-13T01:55:38.566Z,18.92
2022-11-13T01:58:06.578Z,18.05
2022-11-13T02:00:33.616Z,18.67
2022-11-13T02:03:00.357Z,15.85
2022-11-13T02:05:27.002Z,18.27
2022-11-13T02:07:53.738Z,16.85
2022-11-13T02:10:20.572Z,18.85
2022-11-13T02:12:50.846Z,16.65
2022-11-13T02:15:19.610Z,21.38
2022-11-13T02:17:49.610Z,20.33
2022-11-13T02:20:16.779Z,16.33
2022-11-13T02:22:53.950Z,19.05
2022-11-13T02:25:20.683Z,19.75
2022-11-13T02:27:49.060Z,15.15
2022-11-13T02:30:27.180Z,15.38
2022-11-13T02:32:57.185Z,14.10
2022-11-13T02:35:30.789Z,13.98
2022-11-13T02:38:00.092Z,18.70
2022-11-13T02:40:27.337Z,17.52
2022-11-13T02:42:54.483Z,15.63
2022-11-13T02:45:21.124Z,17.17
2022-11-13T02:47:48.112Z,15.13
2022-11-13T02:50:15.325Z,18.42
2022-11-13T02:52:42.099Z,17.45
2022-11-13T02:55:09.213Z,18.33
2022-11-13T02:57:36.009Z,15.13
2022-11-13T03:00:03.012Z,15.63
2022-11-13T03:02:29.677Z,14.65
2022-11-13T03:05:13.309Z,13.23
2022-11-13T03:07:41.090Z,12.82
2022-11-13T03:10:08.604Z,17.55
2022-11-13T03:12:35.420Z,12.00
2022-11-13T03:15:02.122Z,15.85
2022-11-13T03:17:31.624Z,11.73
2022-11-13T03:19:58.267Z,15.55
2022-11-13T03:22:25.082Z,13.13
2022-11-13T03:24:51.843Z,11.15
2022-11-13T03:27:18.853Z,14.77
2022-11-13T03:29:45.557Z,11.85
2022-11-13T03:32:12.248Z,16.55
2022-11-13T03:34:42.391Z,12.88
2022-11-13T03:37:09.100Z,11.00
2022-11-13T03:39:35.931Z,11.35
2022-11-13T03:42:02.584Z,13.32
2022-11-13T03:44:29.299Z,13.73
2022-11-13T03:46:56.084Z,10.98
2022-11-13T03:49:22.882Z,13.77
2022-11-13T03:51:49.490Z,10.35
2022-11-13T03:54:16.508Z,14.48
2022-11-13T03:56:43.147Z,13.75
2022-11-13T03:59:09.793Z,14.80
2022-11-13T04:01:36.483Z,13.15
2022-11-13T04:04:03.407Z,12.48
2022-11-13T04:06:30.137Z,15.48
2022-11-13T04:08:57.670Z,14.02
2022-11-13T04:11:24.365Z,10.90
2022-11-13T04:13:51.087Z,13.18
2022-11-13T04:16:18.235Z,11.75
2022-11-13T04:18:44.878Z,13.10
2022-11-13T04:21:11.542Z,13.02
2022-11-13T04:23:38.154Z,13.50
2022-11-13T04:26:05.196Z,14.45
2022-11-13T04:28:32.308Z,12.05
2022-11-13T04:30:59.193Z,11.50
2022-11-13T04:33:25.857Z,12.10
2022-11-13T04:35:52.514Z,11.43
2022-11-13T04:38:19.197Z,16.60
2022-11-13T04:40:50.482Z,13.05
2022-11-13T04:43:17.223Z,15.98
2022-11-13T04:45:44.038Z,12.75
2022-11-13T04:48:10.719Z,12.55
2022-11-13T04:50:37.422Z,15.43
2022-11-13T04:53:04.198Z,12.18
2022-11-13T04:55:30.822Z,12.40
2022-11-13T04:57:57.526Z,11.55
2022-11-13T05:00:24.409Z,12.15
2022-11-13T05:02:50.999Z,11.75
2022-11-13T05:05:17.778Z,14.00
2022-11-13T05:07:44.662Z,13.00
2022-11-13T05:10:11.401Z,16.33
2022-11-13T05:12:38.067Z,16.35
2022-11-13T05:15:05.321Z,13.52
2022-11-13T05:17:31.969Z,11.48
2022-11-13T05:19:58.664Z,11.30
2022-11-13T05:22:25.448Z,11.25
2022-11-13T05:24:52.176Z,11.07
2022-11-13T05:27:18.962Z,12.38
2022-11-13T05:29:45.695Z,10.60
2022-11-13T05:32:12.400Z,12.13
2022-11-13T05:34:39.052Z,10.90
2022-11-13T05:37:05.807Z,11.38
2022-11-13T05:39:32.412Z,12.98
2022-11-13T05:41:59.397Z,12.02
2022-11-13T05:44:26.107Z,11.75
2022-11-13T05:46:52.826Z,13.23
2022-11-13T05:49:19.629Z,10.77
2022-11-13T05:51:46.318Z,10.57
2022-11-13T05:54:12.957Z,12.30
2022-11-13T05:56:40.711Z,14.60
2022-11-13T05:59:07.762Z,14.38
2022-11-13T06:01:36.740Z,12.05
2022-11-13T06:04:04.632Z,10.73
2022-11-13T06:06:31.780Z,10.60
2022-11-13T06:09:00.471Z,13.98
2022-11-13T06:11:28.505Z,12.00
2022-11-13T06:13:56.218Z,11.30
2022-11-13T06:16:25.651Z,11.73
2022-11-13T06:18:59.049Z,13.55
2022-11-13T06:21:28.343Z,13.75
2022-11-13T06:23:55.296Z,10.55
2022-11-13T06:26:24.768Z,15.07
2022-11-13T06:28:51.682Z,11.27
2022-11-13T06:31:37.528Z,12.95
2022-11-13T06:34:04.883Z,12.00
2022-11-13T06:36:34.838Z,11.73
2022-11-13T06:39:02.311Z,11.98
2022-11-13T06:41:31.519Z,13.82
2022-11-13T06:44:02.590Z,15.25
2022-11-13T06:46:30.618Z,14.88
2022-11-13T06:48:57.557Z,15.18
2022-11-13T06:51:26.459Z,21.05
2022-11-13T06:53:53.172Z,17.45
2022-11-13T06:56:20.644Z,18.35
2022-11-13T06:58:47.750Z,19.33
2022-11-13T07:01:17.257Z,18.73
2022-11-13T07:03:44.295Z,20.45
2022-11-13T07:06:16.312Z,18.25
2022-11-13T07:08:43.692Z,20.42
2022-11-13T07:11:15.970Z,23.38
2022-11-13T07:13:43.238Z,24.80
2022-11-13T07:16:16.952Z,19.73
2022-11-13T07:18:49.249Z,22.08
2022-11-13T07:21:15.920Z,23.50
2022-11-13T07:23:43.771Z,19.88
2022-11-13T07:26:13.395Z,22.33
2022-11-13T07:28:40.168Z,22.65
2022-11-13T07:31:07.325Z,21.15
2022-11-13T07:33:34.008Z,18.67
2022-11-13T07:36:01.009Z,20.00
2022-11-13T07:38:27.978Z,18.98
2022-11-13T07:40:55.041Z,17.70
2022-11-13T07:43:21.784Z,14.65
2022-11-13T07:45:54.668Z,15.48
2022-11-13T07:48:22.752Z,17.95
2022-11-13T07:50:49.846Z,17.13
2022-11-13T07:53:17.845Z,13.63
2022-11-13T07:55:44.631Z,14.38
2022-11-13T07:58:11.677Z,18.83
2022-11-13T08:00:38.866Z,16.15
2022-11-13T08:03:15.801Z,18.58
2022-11-13T08:05:43.118Z,14.77
2022-11-13T08:08:12.867Z,16.15
2022-11-13T08:10:39.884Z,17.42
2022-11-13T08:13:09.112Z,18.67
2022-11-13T08:15:36.110Z,15.32
2022-11-13T08:18:04.604Z,16.27
2022-11-13T08:20:31.861Z,16.38
2022-11-13T08:23:00.018Z,17.48
2022-11-13T08:25:27.700Z,17.88
2022-11-13T08:27:54.825Z,18.25
2022-11-13T08:30:22.089Z,16.52
2022-11-13T08:32:48.939Z,16.80
2022-11-13T08:35:19.254Z,17.60
2022-11-13T08:37:46.713Z,19.58
2022-11-13T08:40:13.573Z,20.20
2022-11-13T08:42:40.210Z,18.50
2022-11-13T08:45:08.276Z,16.98
2022-11-13T08:47:36.642Z,18.73
2022-11-13T08:50:04.847Z,19.48
2022-11-13T08:52:31.653Z,21.27
2022-11-13T08:54:58.851Z,19.63
2022-11-13T08:57:25.715Z,18.90
2022-11-13T08:59:52.509Z,22.52
2022-11-13T09:02:19.231Z,20.55
2022-11-13T09:04:46.092Z,18.25
2022-11-13T09:07:13.003Z,20.67
2022-11-13T09:09:39.705Z,17.13
2022-11-13T09:12:06.607Z,18.38
2022-11-13T09:14:33.293Z,17.52
2022-11-13T09:17:00.191Z,19.95
2022-11-13T09:19:27.169Z,16.50
2022-11-13T09:21:53.880Z,16.50
2022-11-13T09:24:20.826Z,19.27
2022-11-13T09:26:47.570Z,16.95
2022-11-13T09:29:14.348Z,17.77
2022-11-13T09:31:41.470Z,17.20
2022-11-13T09:34:08.917Z,17.23
2022-11-13T09:36:36.255Z,16.85
2022-11-13T09:39:04.334Z,22.55
2022-11-13T09:41:35.486Z,14.68
2022-11-13T09:44:19.414Z,14.70
2022-11-13T09:46:51.885Z,15.88
2022-11-13T09:49:44.947Z,15.30
2022-11-13T09:52:17.738Z,17.60
2022-11-13T09:54:44.481Z,18.27
2022-11-13T09:57:30.992Z,16.67
2022-11-13T10:00:02.343Z,13.90
2022-11-13T10:02:50.160Z,15.75
2022-11-13T10:05:25.111Z,14.27
2022-11-13T10:08:01.652Z,16.10
2022-11-13T10:10:36.593Z,15.10
2022-11-13T10:13:04.774Z,14.32
2022-11-13T10:15:31.934Z,15.00
2022-11-13T10:18:24.670Z,15.48
2022-11-13T10:21:09.828Z,12.63
2022-11-13T10:23:38.524Z,14.07
2022-11-13T10:26:16.946Z,11.88
2022-11-13T10:28:50.601Z,13.32
2022-11-13T10:31:18.304Z,16.20
2022-11-13T10:33:44.982Z,15.75
2022-11-13T10:36:20.311Z,12.35
2022-11-13T10:38:50.925Z,11.02
2022-11-13T10:41:19.743Z,14.55
2022-11-13T10:44:00.105Z,16.02
2022-11-13T10:46:30.210Z,11.27
2022-11-13T10:48:57.963Z,12.63
2022-11-13T10:51:32.678Z,15.13
2022-11-13T10:54:00.087Z,13.18
2022-11-13T10:56:35.375Z,10.48
2022-11-13T10:59:18.596Z,14.70
2022-11-13T11:01:46.777Z,11.10
2022-11-13T11:04:19.383Z,12.73
2022-11-13T11:07:18.495Z,11.73
2022-11-13T11:09:33.495Z,12.93
2022-11-13T11:12:27.119Z,12.65
2022-11-13T11:14:57.148Z,15.07
2022-11-13T11:17:35.922Z,11.38
2022-11-13T11:20:20.582Z,15.10
2022-11-13T11:22:51.434Z,9.70
2022-11-13T11:25:29.627Z,13.07
2022-11-13T11:28:28.456Z,10.68
2022-11-13T11:31:06.218Z,12.05
2022-11-13T11:33:36.130Z,12.90
2022-11-13T11:36:16.257Z,17.33
2022-11-13T11:38:52.560Z,10.50
2022-11-13T11:41:23.969Z,9.07
2022-11-13T11:44:02.341Z,10.07
2022-11-13T11:46:30.298Z,15.10
2022-11-13T11:49:01.228Z,10.98
2022-11-13T11:51:33.084Z,11.13
2022-11-13T11:54:24.310Z,12.20
2022-11-13T11:56:58.060Z,9.02
2022-11-13T12:00:00.995Z,10.57
2022-11-13T12:02:39.849Z,9.88
2022-11-13T12:05:20.103Z,10.73
2022-11-13T12:08:05.403Z,11.13
2022-11-13T12:10:53.039Z,12.30
2022-11-13T12:13:23.338Z,12.60
2022-11-13T12:15:56.524Z,11.85
2022-11-13T12:18:52.412Z,10.45
2022-11-13T12:21:23.571Z,21.63
2022-11-13T12:24:08.937Z,13.77
2022-11-13T12:26:55.191Z,12.40
2022-11-13T12:29:27.511Z,13.23
2022-11-13T12:32:05.984Z,14.88
2022-11-13T12:34:42.825Z,11.10
2022-11-13T12:37:15.032Z,11.52
2022-11-13T12:39:58.517Z,16.30
2022-11-13T12:42:34.846Z,18.35
2022-11-13T12:45:19.960Z,13.82
2022-11-13T12:47:49.766Z,14.02
2022-11-13T12:50:31.425Z,14.00
2022-11-13T12:53:04.201Z,13.13
2022-11-13T12:55:33.328Z,11.77
2022-11-13T12:58:10.583Z,15.73
2022-11-13T13:00:40.571Z,19.20
2022-11-13T13:04:03.248Z,16.08
2022-11-13T13:06:54.840Z,17.95
2022-11-13T13:09:36.913Z,18.27
2022-11-13T13:12:41.835Z,22.40
2022-11-13T13:15:12.851Z,17.13
2022-11-13T13:17:41.231Z,18.17
2022-11-13T13:20:13.829Z,19.65
2022-11-13T13:22:40.856Z,16.38
2022-11-13T13:25:43.023Z,14.65
2022-11-13T13:28:09.560Z,14.60
2022-11-13T13:30:48.625Z,21.42
2022-11-13T13:33:30.513Z,14.32
2022-11-13T13:35:57.116Z,13.55
2022-11-13T13:38:41.887Z,14.05
2022-11-13T13:41:18.167Z,14.25
2022-11-13T13:43:55.536Z,13.07
2022-11-13T13:46:25.315Z,15.32
2022-11-13T13:48:55.896Z,15.57
2022-11-13T13:51:40.026Z,16.48
2022-11-13T13:54:08.130Z,16.02
2022-11-13T13:56:40.341Z,13.23
2022-11-13T13:59:17.554Z,13.80
2022-11-13T14:01:56.090Z,14.25
2022-11-13T14:04:23.731Z,17.40
2022-11-13T14:06:58.511Z,16.45
2022-11-13T14:09:27.556Z,18.27
2022-11-13T14:12:07.811Z,17.42
2022-11-13T14:14:39.084Z,12.95
2022-11-13T14:17:05.965Z,17.35
2022-11-13T14:19:32.644Z,16.85
2022-11-13T14:22:01.968Z,13.18
2022-11-13T14:24:39.485Z,12.38
2022-11-13T14:27:07.568Z,17.25
2022-11-13T14:29:45.409Z,13.15
2022-11-13T14:32:28.766Z,16.98
2022-11-13T14:34:57.917Z,19.08
2022-11-13T14:37:31.667Z,14.18
2022-11-13T14:40:02.552Z,16.73
2022-11-13T14:42:37.434Z,14.95
2022-11-13T14:45:13.036Z,14.85
2022-11-13T14:47:39.923Z,12.70
2022-11-13T14:50:21.114Z,13.00
2022-11-13T14:53:00.660Z,15.75
2022-11-13T14:55:32.846Z,21.10
2022-11-13T14:58:00.012Z,15.85
2022-11-13T15:00:32.234Z,13.25
2022-11-13T15:03:00.179Z,12.85
2022-11-13T15:05:27.174Z,16.52
2022-11-13T15:07:55.319Z,17.95
2022-11-13T15:10:24.928Z,17.42
2022-11-13T15:12:52.088Z,14.82
2022-11-13T15:15:25.890Z,13.48
2022-11-13T15:17:52.687Z,14.63
2022-11-13T15:20:27.094Z,15.77
2022-11-13T15:22:57.545Z,13.93
2022-11-13T15:25:31.776Z,14.57
2022-11-13T15:27:58.392Z,15.38
2022-11-13T15:30:25.113Z,13.98
2022-11-13T15:32:54.382Z,15.98
2022-11-13T15:35:21.489Z,14.50
2022-11-13T15:37:48.165Z,18.95
2022-11-13T15:40:15.282Z,11.88
2022-11-13T15:42:43.801Z,14.63
2022-11-13T15:45:14.694Z,13.32
2022-11-13T15:47:41.733Z,12.98
2022-11-13T15:50:16.569Z,14.95
2022-11-13T15:52:48.188Z,12.63
2022-11-13T15:55:27.999Z,13.18
2022-11-13T15:57:55.336Z,14.82
2022-11-13T16:00:25.318Z,17.90
2022-11-13T16:02:55.544Z,14.60
2022-11-13T16:05:29.451Z,15.00
2022-11-13T16:07:56.963Z,17.58
2022-11-13T16:10:27.066Z,12.80
2022-11-13T16:12:54.219Z,13.35
2022-11-13T16:15:21.786Z,14.90
2022-11-13T16:17:53.974Z,14.05
2022-11-13T16:20:20.666Z,13.70
2022-11-13T16:22:47.320Z,16.75
2022-11-13T16:25:19.416Z,14.07
2022-11-13T16:27:46.668Z,13.50
2022-11-13T16:30:15.610Z,18.55
2022-11-13T16:32:42.450Z,16.45
2022-11-13T16:35:13.771Z,17.67
2022-11-13T16:37:40.963Z,20.02
2022-11-13T16:40:19.670Z,14.30
2022-11-13T16:42:46.287Z,14.93
2022-11-13T16:45:13.051Z,18.98
2022-11-13T16:47:39.844Z,18.27
2022-11-13T16:50:13.448Z,15.93
2022-11-13T16:52:43.020Z,17.60
2022-11-13T16:55:09.795Z,19.65
2022-11-13T16:57:36.502Z,16.85
2022-11-13T17:00:07.066Z,21.75
2022-11-13T17:02:34.525Z,20.17
2022-11-13T17:05:01.197Z,18.15
2022-11-13T17:07:27.926Z,14.13
2022-11-13T17:10:16.847Z,15.52
2022-11-13T17:12:42.386Z,17.77
2022-11-13T17:15:10.041Z,17.23
2022-11-13T17:17:36.673Z,17.55
2022-11-13T17:20:03.560Z,17.13
2022-11-13T17:22:30.261Z,17.95
2022-11-13T17:24:56.962Z,16.27
2022-11-13T17:27:23.635Z,18.10
2022-11-13T17:29:50.518Z,22.20
2022-11-13T17:32:17.423Z,17.08
2022-11-13T17:34:44.162Z,22.08
2022-11-13T17:37:10.900Z,21.75
2022-11-13T17:39:37.581Z,28.92
2022-11-13T17:42:04.451Z,21.63
2022-11-13T17:44:31.328Z,22.63
2022-11-13T17:46:58.065Z,27.52
2022-11-13T17:49:24.879Z,19.60
2022-11-13T17:51:51.550Z,27.17
2022-11-13T17:54:18.288Z,26.50
2022-11-13T17:56:45.040Z,22.80
2022-11-13T17:59:11.764Z,22.02
2022-11-13T18:01:38.627Z,21.60
2022-11-13T18:04:05.701Z,22.33
2022-11-13T18:06:32.439Z,28.05
2022-11-13T18:08:59.238Z,25.52
2022-11-13T18:11:28.126Z,23.30
2022-11-13T18:13:54.869Z,21.58
2022-11-13T18:16:29.743Z,22.35
2022-11-13T18:18:58.092Z,24.25
2022-11-13T18:21:27.370Z,23.88
2022-11-13T18:24:06.613Z,24.40
2022-11-13T18:26:37.181Z,22.08
2022-11-13T18:29:04.400Z,22.38
2022-11-13T18:31:31.226Z,22.25
2022-11-13T18:33:59.711Z,25.02
2022-11-13T18:36:26.447Z,26.42
2022-11-13T18:38:53.342Z,24.80
2022-11-13T18:41:21.715Z,28.95
2022-11-13T18:43:50.098Z,25.10
2022-11-13T18:46:19.117Z,23.58
2022-11-13T18:48:46.707Z,24.90
2022-11-13T18:51:22.103Z,25.48
2022-11-13T18:53:50.228Z,26.35
2022-11-13T18:56:22.454Z,24.58
2022-11-13T18:58:50.677Z,23.58
2022-11-13T19:01:22.663Z,25.85
2022-11-13T19:04:08.681Z,27.23
2022-11-13T19:06:39.137Z,28.27
2022-11-13T19:09:10.168Z,24.85
2022-11-13T19:11:36.912Z,25.88
2022-11-13T19:14:04.308Z,21.70
2022-11-13T19:16:33.633Z,24.95
2022-11-13T19:19:03.412Z,24.50
2022-11-13T19:21:31.576Z,27.45
2022-11-13T19:23:58.942Z,22.08
2022-11-13T19:26:26.263Z,24.63
2022-11-13T19:28:54.128Z,25.38
2022-11-13T19:31:23.737Z,27.65
2022-11-13T19:34:01.640Z,23.58
2022-11-13T19:36:30.118Z,21.98
2022-11-13T19:38:57.682Z,25.88
2022-11-13T19:41:25.716Z,25.52
2022-11-13T19:43:52.508Z,26.55
2022-11-13T19:46:20.195Z,23.58
2022-11-13T19:48:48.744Z,27.85
2022-11-13T19:51:16.848Z,26.98
2022-11-13T19:53:46.416Z,25.83
2022-11-13T19:56:18.683Z,22.77
2022-11-13T19:58:47.090Z,27.63
2022-11-13T20:01:21.874Z,23.80
2022-11-13T20:03:49.714Z,26.77
2022-11-13T20:06:17.861Z,26.17
2022-11-13T20:08:44.918Z,22.15
2022-11-13T20:11:16.988Z,27.83
2022-11-13T20:13:44.191Z,24.60
2022-11-13T20:16:13.016Z,24.65
2022-11-13T20:18:40.373Z,23.30
2022-11-13T20:21:07.585Z,24.00
2022-11-13T20:23:35.661Z,27.00
2022-11-13T20:26:04.547Z,25.25
2022-11-13T20:28:31.814Z,22.83
2022-11-13T20:31:14.325Z,24.55
2022-11-13T20:33:41.016Z,22.63
2022-11-13T20:36:07.991Z,22.98
2022-11-13T20:38:34.625Z,27.80
2022-11-13T20:41:05.639Z,23.15
2022-11-13T20:43:32.485Z,25.23
2022-11-13T20:46:11.305Z,22.25
2022-11-13T20:48:38.273Z,21.20
2022-11-13T20:51:20.183Z,25.38
2022-11-13T20:53:47.603Z,26.55
2022-11-13T20:56:14.678Z,30.15
2022-11-13T20:58:41.518Z,29.17
2022-11-13T21:01:10.737Z,28.20
2022-11-13T21:03:41.406Z,30.00
2022-11-13T21:06:10.617Z,32.35
2022-11-13T21:08:37.489Z,30.95
2022-11-13T21:11:06.355Z,40.58
2022-11-13T21:13:33.913Z,36.33
2022-11-13T21:16:05.338Z,33.30
2022-11-13T21:18:32.348Z,27.92
2022-11-13T21:21:26.876Z,31.67
2022-11-13T21:23:56.323Z,31.95
2022-11-13T21:26:22.948Z,31.50
2022-11-13T21:28:49.600Z,30.98
2022-11-13T21:31:18.283Z,29.25
2022-11-13T21:33:48.628Z,33.88
2022-11-13T21:36:23.535Z,31.05
2022-11-13T21:38:52.614Z,30.90
2022-11-13T21:41:23.512Z,33.15
2022-11-13T21:44:04.775Z,28.75
2022-11-13T21:46:33.501Z,29.27
2022-11-13T21:49:03.844Z,28.60
2022-11-13T21:51:32.036Z,35.95
2022-11-13T21:53:59.806Z,33.72
2022-11-13T21:56:27.737Z,35.65
2022-11-13T21:58:55.940Z,33.15
2022-11-13T22:01:23.932Z,34.47
2022-11-13T22:03:51.058Z,33.53
2022-11-13T22:06:29.500Z,34.10
2022-11-13T22:08:58.883Z,37.53
2022-11-13T22:11:27.806Z,35.88
2022-11-13T22:13:55.027Z,37.95
2022-11-13T22:16:22.780Z,39.78
2022-11-13T22:18:56.587Z,37.38
2022-11-13T22:21:24.683Z,36.15
2022-11-13T22:23:51.631Z,45.33
2022-11-13T22:26:18.966Z,41.80
2022-11-13T22:28:46.533Z,42.97
2022-11-13T22:31:21.553Z,43.20
2022-11-13T22:33:51.468Z,44.75
2022-11-13T22:36:23.946Z,46.20
2022-11-13T22:38:50.701Z,48.10
2022-11-13T22:41:23.362Z,41.08
2022-11-13T22:43:52.707Z,47.83
2022-11-13T22:46:24.317Z,49.08
2022-11-13T22:48:53.047Z,48.88
2022-11-13T22:51:41.344Z,48.22
2022-11-13T22:54:11.357Z,43.75
2022-11-13T22:56:40.172Z,50.00
2022-11-13T22:59:08.342Z,47.17
2022-11-13T23:01:37.416Z,47.30
2022-11-13T23:04:07.351Z,45.22
2022-11-13T23:06:35.461Z,49.97
2022-11-13T23:09:02.461Z,47.90
2022-11-13T23:11:39.740Z,51.47
2022-11-13T23:14:10.683Z,55.67
2022-11-13T23:16:37.733Z,51.20
2022-11-13T23:19:04.571Z,51.13
2022-11-13T23:21:31.732Z,54.10
2022-11-13T23:23:58.773Z,50.17
2022-11-13T23:26:26.220Z,53.90
2022-11-13T23:28:53.503Z,54.78
2022-11-13T23:31:20.760Z,51.22
2022-11-13T23:33:47.582Z,52.95
2022-11-13T23:36:15.447Z,51.97
2022-11-13T23:38:42.596Z,55.47
2022-11-13T23:41:09.849Z,51.58
2022-11-13T23:44:07.168Z,53.25
2022-11-13T23:46:23.713Z,51.58
2022-11-13T23:48:50.510Z,58.30
2022-11-13T23:51:17.124Z,54.20
2022-11-13T23:53:43.836Z,49.03
2022-11-13T23:56:11.373Z,54.85
2022-11-13T23:58:38.175Z,56.00
